createdAt,value
2023-04-08T00:00:01.406Z,1220.00
2023-04-08T00:01:01.372Z,1206.00
2023-04-08T00:02:01.475Z,1219.00
2023-04-08T00:03:01.582Z,1199.00
2023-04-08T00:04:01.489Z,1187.00
2023-04-08T00:05:01.471Z,1191.00
2023-04-08T00:06:01.378Z,1206.00
2023-04-08T00:07:01.373Z,1158.00
2023-04-08T00:08:01.382Z,1190.00
2023-04-08T00:09:01.380Z,1161.00
2023-04-08T00:10:01.422Z,1184.00
2023-04-08T00:11:01.350Z,1201.00
2023-04-08T00:12:01.375Z,1186.00
2023-04-08T00:13:01.386Z,1210.00
2023-04-08T00:14:01.419Z,1210.00
2023-04-08T00:15:01.446Z,1191.00
2023-04-08T00:16:01.385Z,1208.00
2023-04-08T00:17:01.416Z,1179.00
2023-04-08T00:18:01.411Z,1190.00
2023-04-08T00:19:01.368Z,1167.00
2023-04-08T00:20:01.351Z,1174.00
2023-04-08T00:21:01.382Z,1174.00
2023-04-08T00:22:01.385Z,1153.00
2023-04-08T00:23:01.351Z,1158.00
2023-04-08T00:24:01.352Z,1179.00
2023-04-08T00:25:01.359Z,1160.00
2023-04-08T00:26:01.341Z,1181.00
2023-04-08T00:27:01.360Z,1190.00
2023-04-08T00:28:01.357Z,1143.00
2023-04-08T00:29:01.346Z,1162.00
2023-04-08T00:30:01.340Z,1182.00
2023-04-08T00:31:01.340Z,1134.00
2023-04-08T00:32:01.311Z,1141.00
2023-04-08T00:33:01.382Z,1136.00
2023-04-08T00:34:01.315Z,1153.00
2023-04-08T00:35:01.327Z,1152.00
2023-04-08T00:36:01.410Z,1156.00
2023-04-08T00:37:01.301Z,1149.00
2023-04-08T00:38:01.299Z,1133.00
2023-04-08T00:39:01.293Z,1140.00
2023-04-08T00:40:01.291Z,1147.00
2023-04-08T00:41:01.303Z,1127.00
2023-04-08T00:42:01.299Z,1131.00
2023-04-08T00:43:01.308Z,1108.00
2023-04-08T00:44:01.300Z,1119.00
2023-04-08T00:45:01.303Z,1116.00
2023-04-08T00:46:01.360Z,1106.00
2023-04-08T00:47:01.350Z,1087.00
2023-04-08T00:48:01.391Z,1114.00
2023-04-08T00:49:01.288Z,1083.00
2023-04-08T00:50:01.287Z,1083.00
2023-04-08T00:51:01.299Z,1097.00
2023-04-08T00:52:01.299Z,1099.00
2023-04-08T00:53:01.291Z,1087.00
2023-04-08T00:54:01.284Z,1078.00
2023-04-08T00:55:01.312Z,1091.00
2023-04-08T00:56:01.353Z,1059.00
2023-04-08T00:57:01.275Z,1062.00
2023-04-08T00:58:01.282Z,1056.00
2023-04-08T00:59:01.263Z,1079.00
2023-04-08T01:00:01.251Z,1061.00
2023-04-08T01:01:01.278Z,1084.00
2023-04-08T01:02:01.318Z,1076.00
2023-04-08T01:03:01.596Z,1089.00
2023-04-08T01:04:01.327Z,1054.00
2023-04-08T01:05:01.235Z,1075.00
2023-04-08T01:06:01.249Z,1117.00
2023-04-08T01:07:01.256Z,1071.00
2023-04-08T01:08:01.232Z,1083.00
2023-04-08T01:09:01.241Z,1073.00
2023-04-08T01:10:01.233Z,1081.00
2023-04-08T01:11:01.243Z,1081.00
2023-04-08T01:12:01.235Z,1064.00
2023-04-08T01:13:01.227Z,1073.00
2023-04-08T01:14:01.202Z,1058.00
2023-04-08T01:15:01.213Z,1060.00
2023-04-08T01:16:01.234Z,1079.00
2023-04-08T01:17:01.194Z,1063.00
2023-04-08T01:18:01.216Z,1090.00
2023-04-08T01:19:01.197Z,1070.00
2023-04-08T01:20:01.199Z,1074.00
2023-04-08T01:21:01.185Z,1072.00
2023-04-08T01:22:01.193Z,1086.00
2023-04-08T01:23:01.242Z,1082.00
2023-04-08T01:24:01.191Z,1083.00
2023-04-08T01:25:01.218Z,1085.00
2023-04-08T01:26:01.186Z,1093.00
2023-04-08T01:27:01.181Z,1088.00
2023-04-08T01:28:01.175Z,1078.00
2023-04-08T01:29:01.187Z,1083.00
2023-04-08T01:30:01.174Z,1065.00
2023-04-08T01:31:01.233Z,1081.00
2023-04-08T01:32:01.161Z,1073.00
2023-04-08T01:33:01.177Z,1095.00
2023-04-08T01:34:01.136Z,1093.00
2023-04-08T01:35:01.155Z,1099.00
2023-04-08T01:36:01.200Z,1088.00
2023-04-08T01:37:01.144Z,1104.00
2023-04-08T01:38:01.158Z,1103.00
2023-04-08T01:39:01.135Z,1108.00
2023-04-08T01:40:01.153Z,1088.00
2023-04-08T01:41:01.150Z,1070.00
2023-04-08T01:42:01.146Z,1076.00
2023-04-08T01:43:01.141Z,1065.00
2023-04-08T01:44:01.177Z,1086.00
2023-04-08T01:45:01.137Z,1048.00
2023-04-08T01:46:01.141Z,1051.00
2023-04-08T01:47:01.225Z,1048.00
2023-04-08T01:48:01.200Z,1052.00
2023-04-08T01:49:01.147Z,1058.00
2023-04-08T01:50:01.153Z,1055.00
2023-04-08T01:51:01.144Z,1055.00
2023-04-08T01:52:01.155Z,1051.00
2023-04-08T01:53:01.115Z,1056.00
2023-04-08T01:54:01.114Z,1071.00
2023-04-08T01:55:01.124Z,1062.00
2023-04-08T01:56:01.102Z,1058.00
2023-04-08T01:57:01.114Z,1063.00
2023-04-08T01:58:01.105Z,1045.00
2023-04-08T01:59:01.111Z,1052.00
2023-04-08T02:00:01.099Z,1038.00
2023-04-08T02:01:01.110Z,1049.00
2023-04-08T02:02:01.164Z,1048.00
2023-04-08T02:03:01.208Z,1040.00
2023-04-08T02:04:01.172Z,1042.00
2023-04-08T02:05:01.087Z,1056.00
2023-04-08T02:06:01.073Z,1056.00
2023-04-08T02:07:01.068Z,1051.00
2023-04-08T02:08:01.073Z,1050.00
2023-04-08T02:09:01.074Z,1040.00
2023-04-08T02:10:01.062Z,1028.00
2023-04-08T02:11:01.068Z,1043.00
2023-04-08T02:12:01.059Z,1039.00
2023-04-08T02:13:01.083Z,1030.00
2023-04-08T02:14:01.060Z,1043.00
2023-04-08T02:15:01.042Z,1054.00
2023-04-08T02:16:01.076Z,1046.00
2023-04-08T02:17:01.025Z,1038.00
2023-04-08T02:18:01.073Z,1038.00
2023-04-08T02:19:01.021Z,1018.00
2023-04-08T02:20:01.042Z,1038.00
2023-04-08T02:21:01.016Z,1031.00
2023-04-08T02:22:01.031Z,1019.00
2023-04-08T02:23:01.012Z,1013.00
2023-04-08T02:24:02.636Z,986.00
2023-04-08T02:25:01.224Z,1018.00
2023-04-08T02:26:01.241Z,1004.00
2023-04-08T02:27:01.254Z,1000.00
2023-04-08T02:28:01.237Z,1022.00
2023-04-08T02:29:01.234Z,991.00
2023-04-08T02:30:01.218Z,1009.00
2023-04-08T02:31:01.202Z,1019.00
2023-04-08T02:32:01.233Z,1022.00
2023-04-08T02:33:01.312Z,1030.00
2023-04-08T02:34:01.194Z,1015.00
2023-04-08T02:35:01.195Z,1018.00
2023-04-08T02:36:01.216Z,1031.00
2023-04-08T02:37:01.190Z,1030.00
2023-04-08T02:38:01.216Z,1017.00
2023-04-08T02:39:01.210Z,1027.00
2023-04-08T02:40:01.205Z,1016.00
2023-04-08T02:41:01.183Z,1022.00
2023-04-08T02:42:01.174Z,1038.00
2023-04-08T02:43:01.190Z,1037.00
2023-04-08T02:44:01.171Z,1009.00
2023-04-08T02:45:01.184Z,1033.00
2023-04-08T02:46:01.208Z,1020.00
2023-04-08T02:47:01.163Z,1021.00
2023-04-08T02:48:01.234Z,1031.00
2023-04-08T02:49:01.171Z,1039.00
2023-04-08T02:50:01.155Z,1017.00
2023-04-08T02:51:01.154Z,1033.00
2023-04-08T02:52:01.154Z,1028.00
2023-04-08T02:53:01.174Z,1037.00
2023-04-08T02:54:01.159Z,1026.00
2023-04-08T02:55:01.150Z,1030.00
2023-04-08T02:56:01.150Z,1006.00
2023-04-08T02:57:01.146Z,1030.00
2023-04-08T02:58:01.149Z,1019.00
2023-04-08T02:59:01.156Z,1024.00
2023-04-08T03:00:01.156Z,1025.00
2023-04-08T03:01:01.241Z,1011.00
2023-04-08T03:02:01.261Z,999.00
2023-04-08T03:03:01.335Z,1004.00
2023-04-08T03:04:01.237Z,998.00
2023-04-08T03:05:01.170Z,1016.00
2023-04-08T03:06:01.177Z,986.00
2023-04-08T03:07:01.162Z,991.00
2023-04-08T03:08:01.166Z,988.00
2023-04-08T03:09:01.186Z,977.00
2023-04-08T03:10:01.190Z,984.00
2023-04-08T03:11:01.173Z,984.00
2023-04-08T03:12:01.198Z,976.00
2023-04-08T03:13:01.196Z,952.00
2023-04-08T03:14:01.200Z,963.00
2023-04-08T03:15:01.258Z,969.00
2023-04-08T03:16:01.192Z,964.00
2023-04-08T03:17:01.193Z,972.00
2023-04-08T03:18:01.247Z,961.00
2023-04-08T03:19:01.197Z,944.00
2023-04-08T03:20:01.200Z,961.00
2023-04-08T03:21:01.201Z,967.00
2023-04-08T03:22:01.201Z,947.00
2023-04-08T03:23:01.191Z,954.00
2023-04-08T03:24:01.190Z,957.00
2023-04-08T03:25:01.225Z,955.00
2023-04-08T03:26:01.221Z,963.00
2023-04-08T03:27:01.227Z,942.00
2023-04-08T03:28:01.230Z,969.00
2023-04-08T03:29:01.209Z,927.00
2023-04-08T03:30:01.230Z,963.00
2023-04-08T03:31:01.216Z,959.00
2023-04-08T03:32:01.280Z,960.00
2023-04-08T03:33:01.291Z,953.00
2023-04-08T03:34:01.220Z,984.00
2023-04-08T03:35:01.227Z,973.00
2023-04-08T03:36:01.255Z,955.00
2023-04-08T03:37:01.246Z,978.00
2023-04-08T03:38:01.247Z,971.00
2023-04-08T03:39:01.237Z,965.00
2023-04-08T03:40:01.234Z,970.00
2023-04-08T03:41:01.234Z,975.00
2023-04-08T03:42:01.246Z,965.00
2023-04-08T03:43:01.248Z,956.00
2023-04-08T03:44:01.237Z,956.00
2023-04-08T03:45:01.248Z,959.00
2023-04-08T03:46:01.346Z,962.00
2023-04-08T03:47:01.250Z,960.00
2023-04-08T03:48:01.285Z,956.00
2023-04-08T03:49:01.255Z,943.00
2023-04-08T03:50:01.255Z,951.00
2023-04-08T03:51:01.261Z,968.00
2023-04-08T03:52:01.259Z,940.00
2023-04-08T03:53:01.266Z,931.00
2023-04-08T03:54:01.277Z,941.00
2023-04-08T03:55:01.357Z,933.00
2023-04-08T03:56:01.273Z,929.00
2023-04-08T03:57:01.265Z,922.00
2023-04-08T03:58:01.292Z,925.00
2023-04-08T03:59:01.299Z,926.00
2023-04-08T04:00:01.296Z,918.00
2023-04-08T04:01:01.287Z,930.00
2023-04-08T04:02:01.358Z,918.00
2023-04-08T04:03:01.433Z,917.00
2023-04-08T04:04:01.569Z,939.00
2023-04-08T04:05:01.481Z,923.00
2023-04-08T04:06:01.296Z,929.00
2023-04-08T04:07:01.300Z,922.00
2023-04-08T04:08:01.327Z,928.00
2023-04-08T04:09:01.324Z,893.00
2023-04-08T04:10:01.333Z,913.00
2023-04-08T04:11:01.323Z,912.00
2023-04-08T04:12:01.332Z,905.00
2023-04-08T04:13:01.332Z,892.00
2023-04-08T04:14:01.328Z,903.00
2023-04-08T04:15:01.341Z,920.00
2023-04-08T04:16:01.437Z,908.00
2023-04-08T04:17:01.380Z,891.00
2023-04-08T04:18:01.428Z,906.00
2023-04-08T04:19:01.407Z,899.00
2023-04-08T04:20:01.347Z,892.00
2023-04-08T04:21:01.342Z,903.00
2023-04-08T04:22:01.374Z,886.00
2023-04-08T04:23:01.357Z,890.00
2023-04-08T04:24:01.349Z,882.00
2023-04-08T04:25:01.376Z,896.00
2023-04-08T04:26:01.374Z,904.00
2023-04-08T04:27:01.368Z,907.00
2023-04-08T04:28:01.384Z,923.00
2023-04-08T04:29:01.380Z,913.00
2023-04-08T04:30:01.365Z,913.00
2023-04-08T04:31:01.385Z,928.00
2023-04-08T04:32:01.401Z,914.00
2023-04-08T04:33:01.425Z,934.00
2023-04-08T04:34:01.401Z,918.00
2023-04-08T04:35:01.378Z,944.00
2023-04-08T04:36:01.446Z,939.00
2023-04-08T04:37:01.372Z,942.00
2023-04-08T04:38:01.366Z,945.00
2023-04-08T04:39:01.354Z,939.00
2023-04-08T04:40:01.373Z,941.00
2023-04-08T04:41:01.357Z,930.00
2023-04-08T04:42:01.360Z,946.00
2023-04-08T04:43:01.443Z,935.00
2023-04-08T04:44:01.376Z,933.00
2023-04-08T04:45:01.352Z,941.00
2023-04-08T04:46:01.391Z,953.00
2023-04-08T04:47:01.357Z,943.00
2023-04-08T04:48:01.426Z,933.00
2023-04-08T04:49:01.410Z,939.00
2023-04-08T04:50:01.390Z,948.00
2023-04-08T04:51:01.369Z,936.00
2023-04-08T04:52:01.393Z,935.00
2023-04-08T04:53:01.430Z,919.00
2023-04-08T04:54:01.385Z,932.00
2023-04-08T04:55:01.380Z,928.00
2023-04-08T04:56:01.435Z,945.00
2023-04-08T04:57:01.374Z,923.00
2023-04-08T04:58:01.396Z,938.00
2023-04-08T04:59:01.422Z,927.00
2023-04-08T05:00:02.813Z,926.00
2023-04-08T05:01:01.400Z,938.00
2023-04-08T05:02:01.441Z,939.00
2023-04-08T05:03:01.494Z,928.00
2023-04-08T05:04:01.367Z,926.00
2023-04-08T05:05:01.378Z,919.00
2023-04-08T05:06:01.369Z,910.00
2023-04-08T05:07:01.369Z,909.00
2023-04-08T05:08:01.354Z,904.00
2023-04-08T05:09:01.357Z,917.00
2023-04-08T05:10:01.337Z,939.00
2023-04-08T05:11:01.350Z,925.00
2023-04-08T05:12:01.323Z,923.00
2023-04-08T05:13:01.365Z,910.00
2023-04-08T05:14:01.308Z,927.00
2023-04-08T05:15:01.328Z,920.00
2023-04-08T05:16:01.383Z,928.00
2023-04-08T05:17:01.316Z,927.00
2023-04-08T05:18:01.321Z,933.00
2023-04-08T05:19:01.292Z,936.00
2023-04-08T05:20:01.277Z,935.00
2023-04-08T05:21:01.309Z,928.00
2023-04-08T05:22:01.284Z,930.00
2023-04-08T05:23:01.252Z,928.00
2023-04-08T05:24:01.264Z,956.00
2023-04-08T05:25:01.251Z,937.00
2023-04-08T05:26:01.249Z,935.00
2023-04-08T05:27:01.249Z,946.00
2023-04-08T05:28:01.242Z,957.00
2023-04-08T05:29:01.242Z,942.00
2023-04-08T05:30:01.234Z,942.00
2023-04-08T05:31:01.248Z,947.00
2023-04-08T05:32:01.191Z,941.00
2023-04-08T05:33:01.278Z,928.00
2023-04-08T05:34:01.187Z,959.00
2023-04-08T05:35:01.189Z,940.00
2023-04-08T05:36:01.213Z,936.00
2023-04-08T05:37:01.166Z,947.00
2023-04-08T05:38:01.169Z,944.00
2023-04-08T05:39:03.280Z,955.00
2023-04-08T05:40:01.176Z,955.00
2023-04-08T05:41:01.128Z,956.00
2023-04-08T05:42:01.168Z,961.00
2023-04-08T05:43:01.222Z,972.00
2023-04-08T05:44:01.264Z,986.00
2023-04-08T05:45:01.246Z,979.00
2023-04-08T05:46:01.242Z,983.00
2023-04-08T05:47:01.314Z,985.00
2023-04-08T05:48:01.315Z,981.00
2023-04-08T05:49:01.244Z,981.00
2023-04-08T05:50:01.243Z,992.00
2023-04-08T05:51:01.250Z,996.00
2023-04-08T05:52:01.252Z,987.00
2023-04-08T05:53:01.254Z,992.00
2023-04-08T05:54:01.243Z,999.00
2023-04-08T05:55:01.239Z,991.00
2023-04-08T05:56:01.225Z,975.00
2023-04-08T05:57:01.239Z,989.00
2023-04-08T05:58:01.221Z,995.00
2023-04-08T05:59:01.220Z,980.00
2023-04-08T06:00:01.239Z,985.00
2023-04-08T06:01:01.221Z,984.00
2023-04-08T06:02:01.311Z,984.00
2023-04-08T06:03:01.537Z,977.00
2023-04-08T06:04:01.331Z,957.00
2023-04-08T06:05:01.308Z,977.00
2023-04-08T06:06:01.207Z,974.00
2023-04-08T06:07:01.206Z,963.00
2023-04-08T06:08:01.207Z,974.00
2023-04-08T06:09:01.210Z,965.00
2023-04-08T06:10:01.269Z,953.00
2023-04-08T06:11:01.209Z,952.00
2023-04-08T06:12:01.210Z,951.00
2023-04-08T06:13:01.216Z,937.00
2023-04-08T06:14:01.213Z,923.00
2023-04-08T06:15:01.216Z,921.00
2023-04-08T06:16:01.185Z,913.00
2023-04-08T06:17:01.223Z,926.00
2023-04-08T06:18:01.215Z,941.00
2023-04-08T06:19:01.213Z,927.00
2023-04-08T06:20:01.181Z,935.00
2023-04-08T06:21:01.209Z,942.00
2023-04-08T06:22:01.512Z,930.00
2023-04-08T06:23:01.233Z,952.00
2023-04-08T06:24:01.251Z,942.00
2023-04-08T06:25:01.286Z,944.00
2023-04-08T06:26:01.320Z,944.00
2023-04-08T06:27:01.362Z,939.00
2023-04-08T06:28:01.382Z,930.00
2023-04-08T06:29:01.444Z,943.00
2023-04-08T06:30:01.493Z,898.00
2023-04-08T06:31:01.527Z,903.00
2023-04-08T06:32:01.609Z,907.00
2023-04-08T06:33:01.710Z,907.00
2023-04-08T06:34:01.703Z,882.00
2023-04-08T06:35:01.814Z,900.00
2023-04-08T06:36:01.875Z,891.00
2023-04-08T06:37:01.885Z,880.00
2023-04-08T06:38:01.919Z,863.00
2023-04-08T06:39:02.038Z,838.00
2023-04-08T06:40:02.047Z,847.00
2023-04-08T06:41:02.108Z,841.00
2023-04-08T06:42:02.232Z,841.00
2023-04-08T06:43:02.254Z,782.00
2023-04-08T06:44:02.306Z,768.00
2023-04-08T06:45:02.394Z,833.00
2023-04-08T06:46:02.535Z,794.00
2023-04-08T06:47:02.501Z,812.00
2023-04-08T06:48:02.602Z,796.00
2023-04-08T06:49:02.621Z,720.00
2023-04-08T06:50:02.676Z,754.00
2023-04-08T06:51:02.732Z,654.00
2023-04-08T06:52:02.781Z,629.00
2023-04-08T06:53:02.858Z,619.00
2023-04-08T06:54:02.883Z,616.00
2023-04-08T06:55:02.934Z,603.00
2023-04-08T06:56:02.999Z,616.00
2023-04-08T06:57:03.005Z,606.00
2023-04-08T06:58:03.084Z,611.00
2023-04-08T06:59:03.096Z,624.00
2023-04-08T07:00:03.148Z,614.00
2023-04-08T07:01:03.229Z,616.00
2023-04-08T07:02:03.320Z,599.00
2023-04-08T07:03:03.353Z,588.00
2023-04-08T07:04:03.411Z,580.00
2023-04-08T07:05:03.499Z,561.00
2023-04-08T07:06:03.326Z,557.00
2023-04-08T07:07:03.342Z,587.00
2023-04-08T07:08:03.381Z,609.00
2023-04-08T07:09:03.396Z,650.00
2023-04-08T07:10:03.410Z,655.00
2023-04-08T07:11:03.454Z,646.00
2023-04-08T07:12:03.450Z,652.00
2023-04-08T07:13:03.501Z,666.00
2023-04-08T07:14:03.484Z,690.00
2023-04-08T07:15:03.518Z,705.00
2023-04-08T07:16:03.528Z,764.00
2023-04-08T07:17:03.614Z,720.00
2023-04-08T07:18:03.560Z,774.00
2023-04-08T07:19:03.548Z,789.00
2023-04-08T07:20:03.554Z,760.00
2023-04-08T07:21:03.558Z,765.00
2023-04-08T07:22:03.581Z,750.00
2023-04-08T07:23:03.584Z,770.00
2023-04-08T07:24:03.604Z,785.00
2023-04-08T07:25:03.606Z,780.00
2023-04-08T07:26:03.600Z,774.00
2023-04-08T07:27:03.614Z,788.00
2023-04-08T07:28:03.644Z,812.00
2023-04-08T07:29:03.615Z,794.00
2023-04-08T07:30:03.638Z,797.00
2023-04-08T07:31:03.661Z,790.00
2023-04-08T07:32:03.653Z,843.00
2023-04-08T07:33:03.733Z,833.00
2023-04-08T07:34:03.662Z,811.00
2023-04-08T07:35:03.682Z,794.00
2023-04-08T07:36:03.709Z,797.00
2023-04-08T07:37:03.681Z,796.00
2023-04-08T07:38:03.669Z,790.00
2023-04-08T07:39:03.664Z,791.00
2023-04-08T07:40:03.675Z,789.00
2023-04-08T07:41:03.671Z,770.00
2023-04-08T07:42:03.702Z,773.00
2023-04-08T07:43:03.695Z,770.00
2023-04-08T07:44:03.696Z,778.00
2023-04-08T07:45:03.721Z,757.00
2023-04-08T07:46:03.733Z,791.00
2023-04-08T07:47:03.700Z,794.00
2023-04-08T07:48:03.802Z,764.00
2023-04-08T07:49:03.724Z,734.00
2023-04-08T07:50:03.711Z,750.00
2023-04-08T07:51:09.695Z,771.00
2023-04-08T07:52:04.713Z,771.00
2023-04-08T07:53:03.732Z,746.00
2023-04-08T07:54:03.724Z,729.00
2023-04-08T07:55:03.720Z,740.00
2023-04-08T07:56:03.693Z,703.00
2023-04-08T07:57:03.688Z,712.00
2023-04-08T07:58:03.682Z,715.00
2023-04-08T07:59:03.690Z,701.00
2023-04-08T08:00:03.689Z,700.00
2023-04-08T08:01:03.684Z,723.00
2023-04-08T08:02:03.746Z,716.00
2023-04-08T08:03:03.771Z,694.00
2023-04-08T08:04:03.787Z,698.00
2023-04-08T08:05:03.718Z,708.00
2023-04-08T08:06:03.632Z,696.00
2023-04-08T08:07:03.640Z,709.00
2023-04-08T08:08:03.624Z,725.00
2023-04-08T08:09:03.615Z,720.00
2023-04-08T08:10:03.639Z,729.00
2023-04-08T08:11:03.611Z,728.00
2023-04-08T08:12:03.599Z,725.00
2023-04-08T08:13:03.622Z,722.00
2023-04-08T08:14:03.596Z,674.00
2023-04-08T08:15:03.604Z,715.00
2023-04-08T08:16:03.650Z,715.00
2023-04-08T08:17:03.576Z,720.00
2023-04-08T08:18:03.599Z,738.00
2023-04-08T08:19:03.557Z,711.00
2023-04-08T08:20:03.578Z,744.00
2023-04-08T08:21:03.551Z,770.00
2023-04-08T08:22:03.540Z,779.00
2023-04-08T08:23:03.546Z,771.00
2023-04-08T08:24:03.539Z,787.00
2023-04-08T08:25:03.557Z,772.00
2023-04-08T08:26:03.540Z,805.00
2023-04-08T08:27:03.521Z,827.00
2023-04-08T08:28:03.512Z,829.00
2023-04-08T08:29:03.505Z,799.00
2023-04-08T08:30:03.500Z,791.00
2023-04-08T08:31:03.535Z,819.00
2023-04-08T08:32:03.471Z,821.00
2023-04-08T08:33:03.560Z,847.00
2023-04-08T08:34:03.459Z,824.00
2023-04-08T08:35:03.465Z,859.00
2023-04-08T08:36:03.477Z,850.00
2023-04-08T08:37:03.443Z,838.00
2023-04-08T08:38:03.456Z,853.00
2023-04-08T08:39:03.434Z,852.00
2023-04-08T08:40:03.449Z,862.00
2023-04-08T08:41:03.431Z,868.00
2023-04-08T08:42:03.424Z,897.00
2023-04-08T08:43:03.434Z,890.00
2023-04-08T08:44:03.410Z,902.00
2023-04-08T08:45:03.391Z,884.00
2023-04-08T08:46:03.403Z,854.00
2023-04-08T08:47:03.459Z,863.00
2023-04-08T08:48:03.468Z,883.00
2023-04-08T08:49:03.464Z,842.00
2023-04-08T08:50:03.483Z,881.00
2023-04-08T08:51:03.550Z,909.00
2023-04-08T08:52:03.587Z,888.00
2023-04-08T08:53:03.627Z,892.00
2023-04-08T08:54:03.681Z,907.00
2023-04-08T08:55:13.051Z,903.00
2023-04-08T08:56:16.642Z,904.00
2023-04-08T08:57:04.727Z,905.00
2023-04-08T08:58:03.743Z,905.00
2023-04-08T08:59:03.727Z,901.00
2023-04-08T09:00:03.703Z,870.00
2023-04-08T09:01:03.709Z,871.00
2023-04-08T09:02:03.751Z,882.00
2023-04-08T09:03:03.794Z,825.00
2023-04-08T09:04:03.779Z,848.00
2023-04-08T09:05:03.883Z,828.00
2023-04-08T09:06:03.673Z,818.00
2023-04-08T09:07:03.677Z,830.00
2023-04-08T09:08:03.657Z,774.00
2023-04-08T09:09:03.660Z,778.00
2023-04-08T09:10:03.656Z,770.00
2023-04-08T09:11:03.638Z,764.00
2023-04-08T09:12:03.677Z,766.00
2023-04-08T09:13:03.632Z,754.00
2023-04-08T09:14:03.614Z,752.00
2023-04-08T09:15:03.623Z,756.00
2023-04-08T09:16:03.687Z,742.00
2023-04-08T09:17:03.619Z,729.00
2023-04-08T09:18:03.605Z,744.00
2023-04-08T09:19:03.598Z,726.00
2023-04-08T09:20:03.601Z,742.00
2023-04-08T09:21:03.595Z,713.00
2023-04-08T09:22:03.571Z,747.00
2023-04-08T09:23:03.660Z,744.00
2023-04-08T09:24:03.551Z,755.00
2023-04-08T09:25:03.551Z,750.00
2023-04-08T09:26:03.547Z,691.00
2023-04-08T09:27:03.575Z,709.00
2023-04-08T09:28:03.617Z,718.00
2023-04-08T09:29:14.247Z,691.00
2023-04-08T09:30:04.631Z,693.00
2023-04-08T09:31:03.634Z,695.00
2023-04-08T09:32:03.705Z,697.00
2023-04-08T09:33:03.649Z,724.00
2023-04-08T09:34:03.598Z,721.00
2023-04-08T09:35:04.814Z,715.00
2023-04-08T09:36:03.613Z,722.00
2023-04-08T09:37:03.590Z,732.00
2023-04-08T09:38:03.570Z,742.00
2023-04-08T09:39:03.590Z,732.00
2023-04-08T09:40:03.575Z,759.00
2023-04-08T09:41:03.575Z,710.00
2023-04-08T09:42:03.550Z,705.00
2023-04-08T09:43:03.555Z,715.00
2023-04-08T09:44:03.552Z,714.00
2023-04-08T09:45:03.545Z,692.00
2023-04-08T09:46:03.568Z,704.00
2023-04-08T09:47:03.530Z,713.00
2023-04-08T09:48:03.565Z,732.00
2023-04-08T09:49:03.516Z,695.00
2023-04-08T09:50:03.512Z,703.00
2023-04-08T09:51:03.531Z,704.00
2023-04-08T09:52:03.507Z,682.00
2023-04-08T09:53:03.543Z,715.00
2023-04-08T09:54:03.495Z,654.00
2023-04-08T09:55:03.492Z,702.00
2023-04-08T09:56:03.471Z,722.00
2023-04-08T09:57:03.463Z,727.00
2023-04-08T09:58:03.459Z,686.00
2023-04-08T09:59:04.827Z,707.00
2023-04-08T10:00:03.445Z,736.00
2023-04-08T10:01:03.509Z,716.00
2023-04-08T10:02:03.519Z,738.00
2023-04-08T10:03:03.646Z,717.00
2023-04-08T10:04:03.522Z,710.00
2023-04-08T10:05:04.965Z,749.00
2023-04-08T10:06:03.414Z,734.00
2023-04-08T10:07:03.429Z,713.00
2023-04-08T10:08:03.419Z,716.00
2023-04-08T10:09:03.393Z,712.00
2023-04-08T10:10:03.388Z,752.00
2023-04-08T10:11:03.397Z,730.00
2023-04-08T10:12:03.401Z,744.00
2023-04-08T10:13:03.380Z,756.00
2023-04-08T10:14:03.377Z,731.00
2023-04-08T10:15:03.372Z,718.00
2023-04-08T10:16:03.363Z,737.00
2023-04-08T10:17:03.407Z,730.00
2023-04-08T10:18:03.429Z,754.00
2023-04-08T10:19:03.356Z,742.00
2023-04-08T10:20:03.353Z,735.00
2023-04-08T10:21:03.338Z,721.00
2023-04-08T10:22:03.314Z,726.00
2023-04-08T10:23:03.338Z,733.00
2023-04-08T10:24:03.317Z,730.00
2023-04-08T10:25:03.319Z,763.00
2023-04-08T10:26:03.313Z,737.00
2023-04-08T10:27:03.311Z,726.00
2023-04-08T10:28:03.290Z,734.00
2023-04-08T10:29:03.276Z,735.00
2023-04-08T10:30:03.282Z,734.00
2023-04-08T10:31:03.278Z,739.00
2023-04-08T10:33:03.327Z,772.00
2023-04-08T10:34:03.248Z,728.00
2023-04-08T10:35:03.263Z,748.00
2023-04-08T10:36:03.281Z,748.00
2023-04-08T10:37:03.245Z,727.00
2023-04-08T10:38:03.251Z,714.00
2023-04-08T10:39:03.233Z,702.00
2023-04-08T10:40:03.227Z,733.00
2023-04-08T10:41:03.204Z,747.00
2023-04-08T10:42:03.196Z,739.00
2023-04-08T10:43:03.192Z,733.00
2023-04-08T10:44:03.224Z,707.00
2023-04-08T10:45:03.172Z,720.00
2023-04-08T10:46:03.215Z,693.00
2023-04-08T10:47:03.177Z,705.00
2023-04-08T10:48:03.259Z,726.00
2023-04-08T10:49:03.180Z,730.00
2023-04-08T10:50:03.143Z,740.00
2023-04-08T10:51:03.138Z,708.00
2023-04-08T10:52:03.160Z,748.00
2023-04-08T10:53:03.235Z,713.00
2023-04-08T10:54:03.293Z,708.00
2023-04-08T10:55:03.344Z,677.00
2023-04-08T10:56:03.409Z,666.00
2023-04-08T10:57:03.482Z,656.00
2023-04-08T10:58:03.537Z,670.00
2023-04-08T10:59:03.592Z,657.00
2023-04-08T11:00:03.664Z,645.00
2023-04-08T11:01:03.770Z,637.00
2023-04-08T11:02:03.858Z,634.00
2023-04-08T11:03:04.064Z,633.00
2023-04-08T11:04:04.101Z,660.00
2023-04-08T11:05:03.944Z,649.00
2023-04-08T11:06:04.023Z,650.00
2023-04-08T11:07:04.077Z,655.00
2023-04-08T11:08:04.137Z,642.00
2023-04-08T11:09:04.224Z,647.00
2023-04-08T11:10:04.267Z,633.00
2023-04-08T11:11:04.371Z,644.00
2023-04-08T11:12:04.378Z,632.00
2023-04-08T11:13:04.437Z,632.00
2023-04-08T11:14:04.522Z,624.00
2023-04-08T11:15:04.588Z,634.00
2023-04-08T11:17:04.623Z,601.00
2023-04-08T11:18:04.653Z,614.00
2023-04-08T11:19:04.606Z,621.00
2023-04-08T11:20:04.619Z,594.00
2023-04-08T11:21:04.610Z,605.00
2023-04-08T11:22:04.594Z,618.00
2023-04-08T11:23:04.596Z,600.00
2023-04-08T11:24:04.630Z,584.00
2023-04-08T11:25:04.575Z,589.00
2023-04-08T11:26:06.173Z,583.00
2023-04-08T11:27:04.557Z,594.00
2023-04-08T11:28:04.554Z,606.00
2023-04-08T11:29:04.553Z,606.00
2023-04-08T11:30:04.614Z,592.00
2023-04-08T11:31:04.570Z,590.00
2023-04-08T11:32:04.552Z,611.00
2023-04-08T11:33:04.567Z,582.00
2023-04-08T11:34:04.516Z,598.00
2023-04-08T11:35:04.507Z,595.00
2023-04-08T11:36:04.759Z,583.00
2023-04-08T11:37:04.614Z,587.00
2023-04-08T11:38:04.650Z,599.00
2023-04-08T11:39:04.710Z,579.00
2023-04-08T11:40:04.766Z,589.00
2023-04-08T11:41:04.845Z,576.00
2023-04-08T11:42:04.903Z,586.00
2023-04-08T11:43:04.969Z,588.00
2023-04-08T11:44:05.027Z,573.00
2023-04-08T11:45:05.097Z,586.00
2023-04-08T11:46:05.186Z,590.00
2023-04-08T11:47:05.256Z,598.00
2023-04-08T11:48:05.329Z,591.00
2023-04-08T11:49:05.345Z,580.00
2023-04-08T11:50:05.415Z,595.00
2023-04-08T11:51:05.487Z,591.00
2023-04-08T11:52:05.549Z,589.00
2023-04-08T11:53:05.598Z,574.00
2023-04-08T11:54:05.643Z,573.00
2023-04-08T11:55:05.699Z,591.00
2023-04-08T11:56:05.764Z,589.00
2023-04-08T11:57:05.803Z,569.00
2023-04-08T11:58:05.880Z,580.00
2023-04-08T11:59:05.937Z,587.00
2023-04-08T12:00:06.008Z,575.00
2023-04-08T12:01:06.027Z,573.00
2023-04-08T12:02:06.137Z,583.00
2023-04-08T12:03:06.185Z,568.00
2023-04-08T12:04:06.273Z,584.00
2023-04-08T12:05:06.283Z,587.00
2023-04-08T12:06:06.289Z,586.00
2023-04-08T12:07:06.342Z,577.00
2023-04-08T12:08:06.426Z,565.00
2023-04-08T12:09:06.489Z,575.00
2023-04-08T12:10:06.562Z,570.00
2023-04-08T12:11:19.207Z,562.00
2023-04-08T12:12:07.602Z,559.00
2023-04-08T12:13:06.598Z,565.00
2023-04-08T12:14:06.582Z,566.00
2023-04-08T12:15:06.595Z,545.00
2023-04-08T12:16:06.615Z,566.00
2023-04-08T12:17:06.590Z,561.00
2023-04-08T12:18:06.664Z,567.00
2023-04-08T12:19:06.571Z,561.00
2023-04-08T12:20:06.561Z,541.00
2023-04-08T12:21:06.582Z,561.00
2023-04-08T12:22:06.682Z,562.00
2023-04-08T12:23:06.722Z,565.00
2023-04-08T12:24:06.779Z,568.00